KMWK

Mount Airy / Surry County Airport

Mount Airy, North Carolina, USA
METAR KMWK 201535Z AUTO 08004KT 10SM OVC011 24/22 A3013 RMK AO2 T02410217
Observed Flight Rules
Aug-20 @ 15:35 UTC (51 minutes ago) Marginal Visual Flight Rules
Wind Visibility Clouds
80° at 4 knots 10 miles
  • Overcast at 1,100' AGL
Temperatures Readings
Current 24°C / 75°F
Dewpoint 22°C / 72°F
Humidity 89%
Altimeter 30.13" Hg
Pressure 1020 hPa
Elevation 380
METAR KMWK 201535Z AUTO 08004KT 10SM OVC011 24/22 A3013 RMK AO2 T02410217
Observed Flight Rules
Aug-20 @ 15:35 UTC
(51 minutes ago)
MVFR
Wind Visibility
80° at 4 knots 10 miles
Clouds
  • Overcast at 1,100' AGL
Temperature Dewpoint
24°C / 75°F 22°C / 72°F
Humidity Altimeter Pressure
89% 30.13" Hg 1020 hPa